EDDH/HAM METAR and TAF weather

Enter ICAO airport designator
Station Type Date Time Source
EDDH METAR 2017/01/22 18:20 UTC NOAA

EDDH 221820Z 12005KT 040V180 6000 BKN005 M01/M02 Q1026 BECMG 4500 BR BKN004


Station Type Date Time Source
EDDH Decoded METAR 2017/01/22 18:20 UTC NOAA

Hamburg-Fuhlsbuettel, Germany (EDDH) 53-38N 010-00E 15M
Jan 22, 2017 - 01:20 PM EST / 2017.01.22 1820 UTC
Wind: from the ESE (120 degrees) at 6 MPH (5 KT) (direction variable):0
Visibility: 3 mile(s):0
Sky conditions: mostly cloudy
Temperature: 30 F (-1 C)
Windchill: 23 F (-5 C):1
Dew Point: 28 F (-2 C)
Relative Humidity: 92%
Pressure (altimeter): 30.30 in. Hg (1026 hPa)
ob: EDDH 221820Z 12005KT 040V180 6000 BKN005 M01/M02 Q1026 BECMG 4500 BR BKN004
cycle: 18

Station Type Date Time Source
EDDH TAF 2017/01/22 18:27 UTC NOAA

TAF EDDH 221700Z 2218/2324 13005KT 7000 BKN007
TEMPO 2218/2222 VRB03KT 3500 BR BKN004
BECMG 2222/2224 27003KT 2500 BR BKN004 PROB40
TEMPO 2222/2309 0700 FZFG BKN001
BECMG 2309/2312 4500 BR BKN006
BECMG 2312/2315 9999 SCT012


Example: see airport list